TimeEDT,TemperatureF,Dew PointF,Humidity,Sea Level PressureIn,VisibilityMPH,Wind Direction,Wind SpeedMPH,Gust SpeedMPH,PrecipitationIn,Events,Conditions,WindDirDegrees,DateUTC
12:53 AM,51.1,46.9,86,30.21,10.0,Calm,Calm,-,N/A,,Clear,0,2013-06-21 04:53:00
1:53 AM,50.0,48.0,93,30.21,10.0,Calm,Calm,-,N/A,,Clear,0,2013-06-21 05:53:00
2:53 AM,48.9,46.9,93,30.20,10.0,Calm,Calm,-,N/A,,Clear,0,2013-06-21 06:53:00
3:53 AM,48.9,46.9,93,30.20,10.0,Calm,Calm,-,N/A,,Clear,0,2013-06-21 07:53:00
4:53 AM,50.0,48.0,93,30.21,10.0,Calm,Calm,-,N/A,,Clear,0,2013-06-21 08:53:00
5:53 AM,48.0,46.9,96,30.23,8.0,Calm,Calm,-,N/A,,Clear,0,2013-06-21 09:53:00
6:53 AM,52.0,48.9,89,30.24,10.0,Calm,Calm,-,N/A,,Clear,0,2013-06-21 10:53:00
7:53 AM,55.9,50.0,80,30.25,10.0,Calm,Calm,-,N/A,,Clear,0,2013-06-21 11:53:00
8:53 AM,61.0,53.1,75,30.23,10.0,Calm,Calm,-,N/A,,Clear,0,2013-06-21 12:53:00
9:53 AM,66.9,55.0,66,30.23,10.0,Calm,Calm,-,N/A,,Clear,0,2013-06-21 13:53:00
10:53 AM,72.0,53.1,51,30.23,10.0,Calm,Calm,-,N/A,,Clear,0,2013-06-21 14:53:00
11:53 AM,75.9,48.9,38,30.23,10.0,Calm,Calm,-,N/A,,Clear,0,2013-06-21 15:53:00
12:53 PM,79.0,53.1,40,30.21,10.0,SSE,4.6,-,N/A,,Clear,160,2013-06-21 16:53:00
1:53 PM,82.9,50.0,32,30.19,10.0,Variable,3.5,-,N/A,,Clear,0,2013-06-21 17:53:00
2:53 PM,82.0,52.0,35,30.19,10.0,South,6.9,-,N/A,,Partly Cloudy,170,2013-06-21 18:53:00
3:53 PM,82.9,52.0,34,30.19,10.0,West,8.1,-,N/A,,Partly Cloudy,270,2013-06-21 19:53:00
4:53 PM,82.0,50.0,33,30.17,10.0,Calm,Calm,-,N/A,,Partly Cloudy,0,2013-06-21 20:53:00
5:53 PM,84.0,48.9,29,30.18,10.0,WNW,5.8,-,N/A,,Scattered Clouds,300,2013-06-21 21:53:00
6:53 PM,82.0,50.0,33,30.18,10.0,North,4.6,-,N/A,,Clear,350,2013-06-21 22:53:00
7:53 PM,72.0,60.1,66,30.19,10.0,Calm,Calm,-,N/A,,Clear,0,2013-06-21 23:53:00
8:53 PM,64.0,55.9,75,30.19,10.0,Calm,Calm,-,N/A,,Clear,0,2013-06-22 00:53:00
9:53 PM,61.0,55.0,81,30.20,10.0,Calm,Calm,-,N/A,,Clear,0,2013-06-22 01:53:00
10:53 PM,57.9,54.0,87,30.20,10.0,Calm,Calm,-,N/A,,Clear,0,2013-06-22 02:53:00
11:53 PM,57.0,54.0,89,30.20,10.0,Calm,Calm,-,N/A,,Clear,0,2013-06-22 03:53:00